Terminal Aerodrome Forecast
Issued by NWS Portland, OR

Home | Current Version | Previous Version | Text Only | Print | Product List | Glossary On
Versions: 1 2 3 4 5 6 7 8 9 10 11 12 13 14 15 16 17 18
000
FTUS46 KPQR 191121
TAFSLE
TAF
KSLE 191121Z 1912/2012 16006KT P6SM BKN200
     FM191500 17011KT P6SM BKN040 OVC100
     FM192000 21015G25KT P6SM -RA BKN030
     FM200100 25015G25KT P6SM BKN100
     FM200400 25008KT P6SM SCT150=

USA.gov is the U.S. government's official web portal to all federal, state and local government web resources and services.